Concord, California
Current Conditions -  °F | °C
As of 2:35 PM on Friday 19 Dec 2014 (Local Time) from KCCR Reporting Station
Light Rain Light Rain  
Wind Chill: 54°   Ceiling: 1600
Heat Index: 54°   Visibility: 2mi
Dew Point: 52°   Wind: 5mph
Humidity: 93%   Direction: 10°N
Pressure: 30.13"   Gusts: NA
Location:  37.98°N, 122.02°W
Report Text: KCCR 192235Z 01004KT 2SM -RA BR FEW008 OVC016 12/11 A3013 RMK AO2 P0010 T01220111
Loading
Personal Weather Stations






























Interactive Weather Map New forecast layout! Learn more

10-Day Weather Forecast

Advertisements
Track Severe Weather on mobile